Midhurst, United Kingdom
Current Conditions -  °F | °C
As of 2:50 PM on Friday 28 Nov 2014 (Local Time) from EGVO Reporting Station
Haze Haze  
Wind Chill: 50°   Ceiling: 900
Heat Index: 50°   Visibility: 6mi
Dew Point: 48°   Wind: 12mph
Humidity: 94%   Direction: 60°ENE
Pressure: 29.59"   Gusts: NA
Location:  50.99°N, 0.74°W
Report Text: EGVO 281450Z 06010KT 9000 HZ BKN009 10/09 Q1002 GRN BECMG FEW010 BLU
Loading
Personal Weather Stations






























Interactive Weather Map New forecast layout! Learn more

10-Day Weather Forecast

Advertisements
Track Severe Weather on mobile